createdAt,value
2022-10-31T00:01:53.329Z,12.40
2022-10-31T00:04:23.956Z,16.73
2022-10-31T00:06:50.471Z,13.63
2022-10-31T00:09:16.920Z,13.32
2022-10-31T00:11:43.422Z,16.90
2022-10-31T00:14:14.884Z,14.50
2022-10-31T00:16:42.549Z,15.63
2022-10-31T00:19:09.609Z,17.80
2022-10-31T00:21:36.394Z,15.75
2022-10-31T00:24:05.770Z,13.93
2022-10-31T00:26:32.868Z,13.25
2022-10-31T00:29:00.224Z,12.80
2022-10-31T00:31:27.541Z,16.27
2022-10-31T00:33:54.541Z,15.80
2022-10-31T00:36:22.623Z,15.45
2022-10-31T00:38:49.457Z,18.48
2022-10-31T00:41:17.953Z,13.20
2022-10-31T00:43:44.501Z,14.07
2022-10-31T00:46:11.935Z,21.80
2022-10-31T00:48:38.528Z,19.63
2022-10-31T00:51:05.427Z,19.50
2022-10-31T00:53:32.492Z,12.98
2022-10-31T00:56:04.354Z,13.23
2022-10-31T00:58:30.868Z,16.08
2022-10-31T01:00:57.695Z,16.40
2022-10-31T01:03:26.221Z,14.35
2022-10-31T01:06:05.546Z,12.65
2022-10-31T01:08:33.180Z,14.35
2022-10-31T01:11:18.272Z,11.00
2022-10-31T01:13:46.096Z,12.57
2022-10-31T01:16:18.992Z,13.57
2022-10-31T01:18:45.840Z,12.18
2022-10-31T01:21:25.291Z,16.98
2022-10-31T01:23:54.596Z,17.58
2022-10-31T01:26:25.432Z,16.70
2022-10-31T01:29:00.692Z,19.27
2022-10-31T01:31:31.523Z,20.50
2022-10-31T01:33:58.608Z,22.60
2022-10-31T01:36:40.802Z,13.98
2022-10-31T01:39:13.086Z,15.00
2022-10-31T01:41:43.442Z,16.77
2022-10-31T01:44:17.087Z,13.43
2022-10-31T01:46:51.332Z,16.77
2022-10-31T01:49:22.504Z,16.08
2022-10-31T01:51:56.846Z,13.05
2022-10-31T01:54:29.109Z,11.73
2022-10-31T01:56:58.223Z,13.88
2022-10-31T01:59:30.785Z,11.10
2022-10-31T02:01:57.891Z,12.80
2022-10-31T02:04:27.056Z,13.80
2022-10-31T02:07:11.584Z,12.73
2022-10-31T02:09:38.566Z,13.77
2022-10-31T02:12:06.622Z,11.95
2022-10-31T02:14:34.366Z,11.88
2022-10-31T02:17:00.899Z,13.10
2022-10-31T02:19:28.005Z,16.42
2022-10-31T02:22:07.108Z,13.70
2022-10-31T02:24:37.120Z,15.43
2022-10-31T02:27:08.728Z,15.05
2022-10-31T02:30:04.683Z,11.00
2022-10-31T02:32:45.647Z,13.73
2022-10-31T02:35:28.864Z,13.23
2022-10-31T02:38:14.624Z,12.48
2022-10-31T02:40:54.390Z,17.00
2022-10-31T02:43:55.565Z,17.23
2022-10-31T02:46:45.988Z,14.10
2022-10-31T02:49:33.358Z,15.57
2022-10-31T02:51:59.826Z,16.20
2022-10-31T02:54:29.926Z,14.20
2022-10-31T02:57:08.090Z,15.50
2022-10-31T02:59:36.966Z,13.48
2022-10-31T03:02:11.497Z,16.60
2022-10-31T03:04:52.493Z,14.85
2022-10-31T03:07:44.654Z,18.33
2022-10-31T03:10:32.331Z,13.25
2022-10-31T03:13:30.416Z,15.35
2022-10-31T03:16:39.099Z,16.52
2022-10-31T03:19:18.442Z,16.02
2022-10-31T03:21:46.856Z,14.32
2022-10-31T03:24:16.338Z,15.27
2022-10-31T03:26:48.592Z,13.80
2022-10-31T03:29:19.832Z,12.93
2022-10-31T03:31:58.010Z,11.88
2022-10-31T03:34:30.921Z,18.08
2022-10-31T03:37:02.523Z,17.25
2022-10-31T03:39:30.649Z,9.63
2022-10-31T03:42:12.160Z,7.28
2022-10-31T03:44:47.155Z,9.13
2022-10-31T03:47:14.150Z,10.13
2022-10-31T03:49:40.704Z,11.57
2022-10-31T03:52:35.458Z,14.02
2022-10-31T03:55:20.764Z,13.32
2022-10-31T03:58:09.138Z,15.02
2022-10-31T04:00:37.954Z,11.38
2022-10-31T04:03:13.527Z,14.48
2022-10-31T04:05:52.617Z,15.07
2022-10-31T04:08:23.999Z,11.00
2022-10-31T04:10:53.149Z,10.10
2022-10-31T04:13:25.186Z,11.00
2022-10-31T04:16:04.831Z,13.15
2022-10-31T04:18:32.837Z,13.93
2022-10-31T04:21:08.064Z,13.32
2022-10-31T04:23:36.321Z,14.52
2022-10-31T04:26:14.845Z,14.00
2022-10-31T04:28:43.921Z,13.20
2022-10-31T04:31:13.112Z,13.95
2022-10-31T04:33:40.184Z,13.80
2022-10-31T04:36:08.246Z,14.02
2022-10-31T04:38:34.831Z,13.90
2022-10-31T04:41:04.356Z,15.38
2022-10-31T04:43:49.599Z,16.30
2022-10-31T04:46:17.121Z,16.38
2022-10-31T04:48:43.702Z,14.98
2022-10-31T04:51:11.228Z,16.02
2022-10-31T04:53:39.109Z,18.27
2022-10-31T04:56:31.903Z,15.32
2022-10-31T04:59:06.166Z,13.45
2022-10-31T05:01:45.324Z,31.45
2022-10-31T05:04:15.268Z,12.57
2022-10-31T05:06:42.224Z,16.92
2022-10-31T05:09:08.930Z,14.60
2022-10-31T05:11:35.513Z,14.18
2022-10-31T05:14:21.606Z,14.45
2022-10-31T05:17:23.189Z,16.60
2022-10-31T05:20:08.468Z,52.13
2022-10-31T05:22:55.419Z,9.63
2022-10-31T05:25:28.536Z,10.13
2022-10-31T05:27:56.197Z,10.43
2022-10-31T05:30:25.669Z,10.05
2022-10-31T05:32:52.965Z,10.35
2022-10-31T05:35:42.724Z,11.13
2022-10-31T05:41:20.079Z,11.73
2022-10-31T05:43:47.707Z,16.85
2022-10-31T05:46:42.019Z,15.63
2022-10-31T05:49:27.367Z,14.63
2022-10-31T05:52:25.997Z,12.40
2022-10-31T05:55:04.100Z,10.05
2022-10-31T05:57:33.208Z,12.65
2022-10-31T05:59:59.740Z,14.02
2022-10-31T06:02:27.683Z,16.13
2022-10-31T06:05:18.687Z,12.52
2022-10-31T06:07:46.516Z,20.73
2022-10-31T06:10:13.045Z,12.35
2022-10-31T06:12:41.576Z,15.38
2022-10-31T06:15:24.187Z,14.13
2022-10-31T06:18:04.414Z,15.57
2022-10-31T06:20:35.441Z,12.30
2022-10-31T06:23:04.909Z,10.07
2022-10-31T06:25:34.104Z,9.45
2022-10-31T06:28:00.995Z,8.27
2022-10-31T06:30:36.506Z,10.27
2022-10-31T06:33:05.218Z,8.57
2022-10-31T06:35:34.316Z,22.27
2022-10-31T06:38:01.507Z,13.82
2022-10-31T06:40:35.584Z,12.57
2022-10-31T06:43:31.708Z,12.57
2022-10-31T06:46:22.459Z,12.43
2022-10-31T06:49:05.708Z,12.38
2022-10-31T06:51:38.316Z,13.45
2022-10-31T06:54:10.947Z,13.30
2022-10-31T06:56:37.721Z,12.50
2022-10-31T06:59:04.985Z,16.02
2022-10-31T07:01:51.590Z,13.15
2022-10-31T07:04:23.607Z,14.57
2022-10-31T07:06:52.524Z,12.10
2022-10-31T07:09:19.958Z,12.43
2022-10-31T07:11:47.205Z,16.13
2022-10-31T07:14:15.658Z,13.65
2022-10-31T07:16:42.247Z,13.93
2022-10-31T07:19:09.691Z,12.15
2022-10-31T07:21:36.183Z,11.18
2022-10-31T07:24:10.089Z,12.07
2022-10-31T07:29:29.550Z,17.63
2022-10-31T07:31:56.101Z,17.88
2022-10-31T07:34:30.816Z,15.35
2022-10-31T07:37:19.629Z,16.58
2022-10-31T07:39:46.380Z,18.42
2022-10-31T07:42:13.062Z,18.67
2022-10-31T07:44:47.794Z,16.75
2022-10-31T07:47:59.553Z,17.33
2022-10-31T07:50:58.336Z,20.15
2022-10-31T07:53:43.587Z,20.70
2022-10-31T07:56:25.364Z,27.48
2022-10-31T07:58:52.499Z,25.95
2022-10-31T08:01:18.946Z,26.83
2022-10-31T08:03:59.027Z,22.70
2022-10-31T08:06:45.524Z,20.40
2022-10-31T08:09:24.702Z,22.48
2022-10-31T08:11:53.973Z,20.92
2022-10-31T08:14:23.293Z,25.05
2022-10-31T08:16:53.588Z,27.08
2022-10-31T08:19:20.833Z,27.35
2022-10-31T08:21:47.370Z,27.58
2022-10-31T08:24:18.114Z,28.90
2022-10-31T08:26:45.180Z,29.00
2022-10-31T08:29:12.282Z,30.67
2022-10-31T08:31:42.816Z,31.35
2022-10-31T08:34:33.484Z,44.45
2022-10-31T08:37:29.343Z,28.20
2022-10-31T08:39:56.446Z,27.88
2022-10-31T08:42:23.141Z,26.25
2022-10-31T08:44:54.024Z,27.63
2022-10-31T08:47:22.248Z,27.88
2022-10-31T08:49:48.892Z,24.27
2022-10-31T08:52:15.927Z,26.33
2022-10-31T08:54:45.312Z,27.98
2022-10-31T08:57:30.540Z,23.80
2022-10-31T08:59:58.957Z,30.35
2022-10-31T09:02:31.857Z,30.13
2022-10-31T09:05:00.934Z,24.98
2022-10-31T09:07:28.074Z,26.30
2022-10-31T09:09:54.653Z,30.58
2022-10-31T09:12:21.226Z,28.58
2022-10-31T09:15:14.949Z,30.13
2022-10-31T09:17:49.829Z,27.38
2022-10-31T09:20:39.773Z,30.27
2022-10-31T09:23:11.219Z,33.22
2022-10-31T09:25:41.069Z,28.05
2022-10-31T09:28:27.604Z,27.38
2022-10-31T09:30:58.181Z,29.20
2022-10-31T09:33:43.319Z,26.83
2022-10-31T09:36:28.400Z,34.80
2022-10-31T09:38:55.804Z,25.13
2022-10-31T09:41:56.161Z,30.67
2022-10-31T09:45:01.552Z,28.88
2022-10-31T09:47:48.852Z,31.15
2022-10-31T09:54:14.101Z,30.70
2022-10-31T09:56:40.907Z,30.27
2022-10-31T09:59:18.039Z,30.83
2022-10-31T10:01:57.272Z,30.92
2022-10-31T10:04:58.133Z,32.25
2022-10-31T10:07:33.635Z,38.15
2022-10-31T10:10:52.559Z,37.33
2022-10-31T10:13:31.589Z,36.80
2022-10-31T10:16:22.185Z,33.35
2022-10-31T10:19:20.809Z,34.65
2022-10-31T10:21:59.356Z,33.22
2022-10-31T10:24:45.994Z,31.13
2022-10-31T10:27:41.457Z,30.65
2022-10-31T10:30:11.115Z,30.00
2022-10-31T10:32:52.218Z,32.30
2022-10-31T10:35:56.703Z,25.98
2022-10-31T10:39:15.452Z,33.78
2022-10-31T10:41:47.927Z,30.55
2022-10-31T10:44:18.654Z,29.70
2022-10-31T10:47:14.537Z,29.55
2022-10-31T10:49:40.972Z,26.20
2022-10-31T10:52:42.109Z,27.05
2022-10-31T10:55:28.866Z,29.85
2022-10-31T10:58:04.839Z,28.95
2022-10-31T11:00:33.394Z,27.00
2022-10-31T11:03:00.134Z,28.75
2022-10-31T11:05:53.600Z,32.70
2022-10-31T11:08:27.463Z,33.00
2022-10-31T11:11:04.934Z,31.05
2022-10-31T11:13:33.771Z,27.38
2022-10-31T11:16:29.445Z,28.73
2022-10-31T11:19:27.799Z,32.80
2022-10-31T11:21:54.804Z,28.85
2022-10-31T11:24:24.335Z,30.60
2022-10-31T11:26:52.227Z,28.55
2022-10-31T11:29:26.388Z,31.48
2022-10-31T11:31:56.085Z,29.38
2022-10-31T11:34:29.196Z,32.15
2022-10-31T11:37:02.867Z,25.95
2022-10-31T11:39:29.703Z,28.70
2022-10-31T11:42:03.803Z,29.30
2022-10-31T11:44:42.079Z,28.10
2022-10-31T11:47:16.105Z,28.25
2022-10-31T11:49:45.631Z,30.58
2022-10-31T11:52:19.781Z,31.45
2022-10-31T11:55:01.899Z,27.45
2022-10-31T11:57:32.012Z,29.52
2022-10-31T12:00:01.399Z,28.38
2022-10-31T12:02:28.212Z,27.08
2022-10-31T12:05:12.546Z,26.88
2022-10-31T12:07:39.051Z,27.58
2022-10-31T12:10:12.854Z,27.17
2022-10-31T12:13:09.584Z,24.42
2022-10-31T12:15:39.515Z,25.30
2022-10-31T12:18:05.907Z,24.33
2022-10-31T12:20:53.882Z,23.10
2022-10-31T12:23:44.241Z,25.50
2022-10-31T12:26:24.295Z,21.67
2022-10-31T12:29:15.263Z,22.65
2022-10-31T12:31:49.104Z,23.17
2022-10-31T12:34:52.488Z,22.80
2022-10-31T12:37:43.743Z,20.08
2022-10-31T12:40:16.145Z,24.50
2022-10-31T12:43:01.772Z,22.38
2022-10-31T12:45:38.070Z,21.50
2022-10-31T12:48:10.135Z,21.90
2022-10-31T12:51:04.322Z,21.23
2022-10-31T12:53:53.987Z,19.77
2022-10-31T12:56:54.304Z,18.90
2022-10-31T12:59:45.530Z,22.27
2022-10-31T13:02:20.966Z,20.80
2022-10-31T13:05:10.895Z,19.08
2022-10-31T13:07:44.732Z,18.27
2022-10-31T13:10:36.715Z,18.58
2022-10-31T13:13:22.183Z,20.95
2022-10-31T13:15:54.417Z,22.52
2022-10-31T13:18:46.480Z,18.05
2022-10-31T13:21:51.525Z,20.38
2022-10-31T13:24:35.686Z,21.88
2022-10-31T13:27:09.029Z,27.00
2022-10-31T13:29:43.656Z,18.35
2022-10-31T13:32:11.624Z,19.08
2022-10-31T13:34:48.172Z,18.50
2022-10-31T13:37:38.398Z,20.10
2022-10-31T13:40:19.777Z,26.65
2022-10-31T13:43:03.944Z,20.70
2022-10-31T13:45:33.513Z,18.48
2022-10-31T13:48:15.254Z,21.85
2022-10-31T13:50:43.084Z,21.92
2022-10-31T13:53:21.463Z,23.42
2022-10-31T13:56:06.696Z,22.58
2022-10-31T13:58:33.265Z,24.80
2022-10-31T14:01:08.864Z,20.83
2022-10-31T14:06:54.008Z,20.52
2022-10-31T14:09:28.711Z,22.83
2022-10-31T14:11:56.968Z,25.08
2022-10-31T14:14:51.161Z,24.17
2022-10-31T14:17:24.378Z,23.05
2022-10-31T14:20:01.533Z,23.70
2022-10-31T14:22:34.586Z,25.08
2022-10-31T14:25:27.258Z,22.90
2022-10-31T14:27:54.203Z,21.33
2022-10-31T14:30:23.845Z,25.38
2022-10-31T14:32:57.988Z,21.35
2022-10-31T14:35:54.764Z,23.90
2022-10-31T14:38:33.342Z,24.73
2022-10-31T14:41:37.621Z,27.13
2022-10-31T14:44:09.865Z,24.92
2022-10-31T14:47:08.116Z,25.55
2022-10-31T14:49:49.770Z,26.90
2022-10-31T14:52:19.203Z,25.52
2022-10-31T14:54:55.255Z,25.02
2022-10-31T14:57:27.833Z,27.75
2022-10-31T15:00:03.792Z,27.40
2022-10-31T15:02:53.589Z,30.35
2022-10-31T15:05:21.674Z,27.55
2022-10-31T15:07:59.063Z,28.70
2022-10-31T15:10:39.010Z,28.65
2022-10-31T15:13:20.931Z,31.45
2022-10-31T15:15:51.300Z,29.42
2022-10-31T15:18:22.864Z,28.20
2022-10-31T15:20:51.042Z,29.40
2022-10-31T15:23:24.412Z,30.40
2022-10-31T15:25:59.500Z,31.30
2022-10-31T15:28:29.050Z,31.50
2022-10-31T15:30:58.152Z,30.70
2022-10-31T15:33:33.809Z,29.92
2022-10-31T15:36:04.980Z,27.95
2022-10-31T15:38:31.622Z,28.90
2022-10-31T15:41:07.810Z,26.55
2022-10-31T15:43:37.817Z,30.20
2022-10-31T15:46:08.218Z,30.83
2022-10-31T15:48:35.915Z,32.17
2022-10-31T15:51:03.470Z,27.63
2022-10-31T15:53:48.320Z,33.03
2022-10-31T15:56:22.683Z,27.80
2022-10-31T15:58:51.472Z,28.93
2022-10-31T16:01:32.954Z,25.02
2022-10-31T16:04:13.229Z,23.02
2022-10-31T16:06:39.999Z,24.65
2022-10-31T16:09:22.704Z,22.67
2022-10-31T16:11:49.572Z,20.48
2022-10-31T16:14:25.819Z,17.60
2022-10-31T16:16:55.311Z,17.13
2022-10-31T16:19:51.250Z,15.25
2022-10-31T16:22:24.813Z,18.45
2022-10-31T16:25:14.581Z,13.20
2022-10-31T16:27:51.732Z,12.73
2022-10-31T16:30:48.388Z,14.13
2022-10-31T16:33:34.285Z,15.68
2022-10-31T16:36:30.117Z,11.93
2022-10-31T16:38:49.586Z,11.55
2022-10-31T16:41:16.037Z,14.80
2022-10-31T16:43:42.546Z,10.73
2022-10-31T16:48:46.613Z,10.30
2022-10-31T16:51:13.141Z,16.67
2022-10-31T16:53:44.136Z,14.23
2022-10-31T16:56:28.680Z,15.38
2022-10-31T16:58:55.250Z,10.73
2022-10-31T17:01:22.166Z,10.55
2022-10-31T17:03:48.750Z,14.57
2022-10-31T17:06:16.577Z,12.27
2022-10-31T17:08:43.059Z,12.20
2022-10-31T17:11:19.844Z,9.85
2022-10-31T17:13:46.467Z,11.05
2022-10-31T17:16:17.508Z,12.68
2022-10-31T17:18:44.126Z,13.88
2022-10-31T17:21:18.277Z,11.60
2022-10-31T17:23:45.044Z,15.75
2022-10-31T17:26:11.879Z,12.35
2022-10-31T17:28:38.535Z,12.27
2022-10-31T17:31:06.040Z,10.55
2022-10-31T17:33:32.605Z,11.68
2022-10-31T17:35:59.059Z,11.13
2022-10-31T17:38:25.585Z,13.35
2022-10-31T17:40:52.057Z,12.65
2022-10-31T17:43:18.817Z,13.10
2022-10-31T17:45:45.512Z,10.23
2022-10-31T17:48:12.915Z,11.45
2022-10-31T17:50:39.561Z,13.23
2022-10-31T17:53:06.042Z,12.13
2022-10-31T17:55:37.675Z,11.65
2022-10-31T17:58:05.208Z,12.07
2022-10-31T18:00:31.824Z,10.70
2022-10-31T18:02:58.871Z,10.35
2022-10-31T18:05:26.876Z,12.38
2022-10-31T18:07:53.403Z,8.27
2022-10-31T18:10:19.859Z,13.05
2022-10-31T18:12:48.567Z,10.13
2022-10-31T18:15:16.348Z,12.85
2022-10-31T18:17:42.816Z,11.52
2022-10-31T18:20:10.571Z,16.77
2022-10-31T18:22:37.094Z,14.05
2022-10-31T18:25:05.540Z,10.65
2022-10-31T18:27:33.195Z,12.75
2022-10-31T18:29:59.760Z,11.23
2022-10-31T18:32:26.207Z,8.63
2022-10-31T18:34:54.556Z,9.40
2022-10-31T18:37:21.028Z,9.05
2022-10-31T18:39:47.481Z,14.23
2022-10-31T18:42:13.971Z,9.73
2022-10-31T18:44:41.603Z,13.68
2022-10-31T18:47:08.144Z,8.48
2022-10-31T18:49:34.652Z,11.98
2022-10-31T18:52:01.269Z,10.77
2022-10-31T18:54:28.588Z,9.63
2022-10-31T18:56:55.889Z,9.45
2022-10-31T18:59:22.457Z,13.55
2022-10-31T19:01:49.116Z,8.52
2022-10-31T19:04:17.569Z,10.57
2022-10-31T19:06:44.169Z,11.95
2022-10-31T19:09:10.695Z,12.05
2022-10-31T19:11:38.492Z,7.78
2022-10-31T19:14:23.203Z,10.63
2022-10-31T19:16:52.373Z,9.00
2022-10-31T19:19:20.519Z,10.70
2022-10-31T19:21:47.294Z,11.10
2022-10-31T19:24:16.521Z,9.43
2022-10-31T19:26:43.092Z,10.15
2022-10-31T19:29:10.118Z,9.30
2022-10-31T19:31:36.593Z,12.60
2022-10-31T19:34:03.106Z,9.98
2022-10-31T19:36:45.864Z,11.80
2022-10-31T19:39:12.459Z,10.60
2022-10-31T19:41:39.076Z,9.95
2022-10-31T19:44:11.784Z,8.90
2022-10-31T19:46:59.749Z,11.15
2022-10-31T19:49:26.303Z,10.95
2022-10-31T19:51:52.834Z,14.65
2022-10-31T19:54:20.687Z,12.27
2022-10-31T19:56:47.144Z,11.13
2022-10-31T19:59:13.716Z,11.55
2022-10-31T20:01:40.260Z,10.75
2022-10-31T20:04:10.918Z,8.55
2022-10-31T20:06:40.229Z,11.48
2022-10-31T20:09:10.056Z,13.05
2022-10-31T20:11:38.702Z,9.52
2022-10-31T20:14:13.401Z,10.63
2022-10-31T20:16:40.122Z,10.30
2022-10-31T20:19:06.822Z,12.05
2022-10-31T20:21:37.214Z,9.77
2022-10-31T20:24:18.685Z,12.15
2022-10-31T20:26:45.180Z,12.75
2022-10-31T20:29:18.017Z,10.60
2022-10-31T20:31:46.049Z,9.65
2022-10-31T20:34:15.639Z,11.43
2022-10-31T20:36:42.130Z,12.70
2022-10-31T20:39:09.302Z,11.93
2022-10-31T20:41:39.446Z,10.30
2022-10-31T20:44:10.672Z,12.80
2022-10-31T20:46:37.248Z,12.77
2022-10-31T20:49:03.778Z,15.32
2022-10-31T20:51:31.715Z,10.32
2022-10-31T20:53:59.784Z,13.65
2022-10-31T20:56:27.871Z,8.93
2022-10-31T20:58:56.060Z,11.32
2022-10-31T21:01:28.541Z,10.85
2022-10-31T21:03:55.855Z,11.50
2022-10-31T21:06:23.359Z,9.63
2022-10-31T21:08:50.684Z,10.35
2022-10-31T21:11:21.803Z,9.85
2022-10-31T21:13:49.486Z,9.93
2022-10-31T21:16:19.918Z,10.45
2022-10-31T21:18:47.349Z,12.40
2022-10-31T21:21:20.726Z,9.02
2022-10-31T21:23:48.038Z,14.38
2022-10-31T21:26:19.251Z,10.27
2022-10-31T21:28:45.724Z,9.90
2022-10-31T21:31:14.910Z,9.32
2022-10-31T21:33:42.046Z,10.35
2022-10-31T21:36:09.632Z,10.30
2022-10-31T21:38:36.708Z,13.38
2022-10-31T21:41:06.913Z,13.40
2022-10-31T21:43:36.189Z,14.63
2022-10-31T21:46:05.029Z,8.65
2022-10-31T21:48:31.601Z,11.27
2022-10-31T21:51:03.029Z,12.57
2022-10-31T21:53:47.897Z,12.63
2022-10-31T21:56:14.436Z,9.40
2022-10-31T21:58:40.948Z,15.88
2022-10-31T22:01:07.478Z,12.45
2022-10-31T22:03:38.874Z,10.73
2022-10-31T22:06:08.571Z,13.20
2022-10-31T22:08:35.133Z,9.75
2022-10-31T22:11:05.833Z,14.43
2022-10-31T22:13:33.367Z,12.90
2022-10-31T22:16:02.257Z,10.05
2022-10-31T22:18:28.975Z,11.95
2022-10-31T22:21:05.066Z,9.73
2022-10-31T22:23:31.654Z,8.82
2022-10-31T22:26:14.526Z,10.48
2022-10-31T22:28:42.943Z,11.18
2022-10-31T22:33:45.302Z,16.42
2022-10-31T22:36:15.308Z,10.55
2022-10-31T22:38:41.980Z,11.00
2022-10-31T22:41:11.006Z,12.57
2022-10-31T22:43:37.946Z,10.95
2022-10-31T22:46:06.807Z,12.77
2022-10-31T22:48:42.006Z,11.80
2022-10-31T22:51:14.436Z,8.23
2022-10-31T22:53:41.393Z,11.48
2022-10-31T22:56:09.671Z,8.30
2022-10-31T22:58:36.774Z,13.90
2022-10-31T23:01:08.627Z,11.02
2022-10-31T23:03:36.163Z,10.60
2022-10-31T23:06:06.026Z,12.30
2022-10-31T23:08:35.278Z,12.18
2022-10-31T23:11:03.225Z,10.13
2022-10-31T23:13:48.439Z,11.38
2022-10-31T23:16:16.453Z,12.73
2022-10-31T23:18:49.959Z,9.30
2022-10-31T23:21:37.462Z,14.07
2022-10-31T23:24:18.701Z,9.63
2022-10-31T23:27:03.599Z,8.57
2022-10-31T23:29:30.075Z,10.40
2022-10-31T23:31:56.584Z,14.45
2022-10-31T23:34:24.340Z,12.43
2022-10-31T23:36:51.012Z,10.88
2022-10-31T23:39:20.017Z,9.90
2022-10-31T23:41:49.370Z,10.55
2022-10-31T23:44:18.716Z,10.52
2022-10-31T23:46:45.370Z,9.80
2022-10-31T23:49:11.882Z,12.73
2022-10-31T23:51:39.207Z,9.52
2022-10-31T23:54:11.861Z,8.68
2022-10-31T23:56:38.377Z,13.45
2022-10-31T23:59:05.094Z,10.77
